sensor_id;sensor_type;location;lat;lon;timestamp;P1;durP1;ratioP1;P2;durP2;ratioP2
68050;SDS011;54839;51.364;7.246;2022-12-18T00:00:42;6.23;;;4.63;;
68050;SDS011;54839;51.364;7.246;2022-12-18T00:03:09;5.87;;;4.33;;
68050;SDS011;54839;51.364;7.246;2022-12-18T00:05:35;6.30;;;4.53;;
68050;SDS011;54839;51.364;7.246;2022-12-18T00:08:01;6.80;;;4.70;;
68050;SDS011;54839;51.364;7.246;2022-12-18T00:10:27;5.80;;;3.93;;
68050;SDS011;54839;51.364;7.246;2022-12-18T00:12:53;7.50;;;4.60;;
68050;SDS011;54839;51.364;7.246;2022-12-18T00:15:19;5.90;;;4.53;;
68050;SDS011;54839;51.364;7.246;2022-12-18T00:17:45;8.70;;;4.97;;
68050;SDS011;54839;51.364;7.246;2022-12-18T00:20:10;7.67;;;4.57;;
68050;SDS011;54839;51.364;7.246;2022-12-18T00:22:36;11.63;;;5.80;;
68050;SDS011;54839;51.364;7.246;2022-12-18T00:25:02;6.00;;;4.63;;
68050;SDS011;54839;51.364;7.246;2022-12-18T00:27:28;4.90;;;4.30;;
68050;SDS011;54839;51.364;7.246;2022-12-18T00:29:54;8.23;;;3.40;;
68050;SDS011;54839;51.364;7.246;2022-12-18T00:32:19;6.43;;;4.30;;
68050;SDS011;54839;51.364;7.246;2022-12-18T00:34:45;7.27;;;5.57;;
68050;SDS011;54839;51.364;7.246;2022-12-18T00:37:10;7.40;;;4.90;;
68050;SDS011;54839;51.364;7.246;2022-12-18T00:39:36;6.57;;;4.73;;
68050;SDS011;54839;51.364;7.246;2022-12-18T00:42:02;5.53;;;4.93;;
68050;SDS011;54839;51.364;7.246;2022-12-18T00:44:46;6.20;;;5.10;;
68050;SDS011;54839;51.364;7.246;2022-12-18T00:47:11;10.90;;;6.30;;
68050;SDS011;54839;51.364;7.246;2022-12-18T00:49:37;5.47;;;4.60;;
68050;SDS011;54839;51.364;7.246;2022-12-18T00:52:03;5.60;;;4.47;;
68050;SDS011;54839;51.364;7.246;2022-12-18T00:54:29;9.90;;;5.00;;
68050;SDS011;54839;51.364;7.246;2022-12-18T00:56:55;10.20;;;5.33;;
68050;SDS011;54839;51.364;7.246;2022-12-18T00:59:20;6.87;;;5.50;;
68050;SDS011;54839;51.364;7.246;2022-12-18T01:01:46;6.47;;;5.10;;
68050;SDS011;54839;51.364;7.246;2022-12-18T01:04:12;7.73;;;5.10;;
68050;SDS011;54839;51.364;7.246;2022-12-18T01:06:38;7.50;;;4.77;;
68050;SDS011;54839;51.364;7.246;2022-12-18T01:09:03;5.73;;;4.10;;
68050;SDS011;54839;51.364;7.246;2022-12-18T01:11:29;6.57;;;4.27;;
68050;SDS011;54839;51.364;7.246;2022-12-18T01:13:55;7.47;;;4.63;;
68050;SDS011;54839;51.364;7.246;2022-12-18T01:16:21;4.93;;;4.37;;
68050;SDS011;54839;51.364;7.246;2022-12-18T01:18:50;6.23;;;4.57;;
68050;SDS011;54839;51.364;7.246;2022-12-18T01:21:17;6.53;;;4.43;;
68050;SDS011;54839;51.364;7.246;2022-12-18T01:23:43;6.43;;;5.10;;
68050;SDS011;54839;51.364;7.246;2022-12-18T01:26:10;9.33;;;5.70;;
68050;SDS011;54839;51.364;7.246;2022-12-18T01:28:37;6.97;;;5.20;;
68050;SDS011;54839;51.364;7.246;2022-12-18T01:31:17;6.43;;;5.10;;
68050;SDS011;54839;51.364;7.246;2022-12-18T01:33:51;6.40;;;4.57;;
68050;SDS011;54839;51.364;7.246;2022-12-18T01:38:44;5.60;;;4.40;;
68050;SDS011;54839;51.364;7.246;2022-12-18T01:41:10;6.97;;;5.10;;
68050;SDS011;54839;51.364;7.246;2022-12-18T01:46:26;6.47;;;4.57;;
68050;SDS011;54839;51.364;7.246;2022-12-18T01:48:57;8.80;;;5.20;;
68050;SDS011;54839;51.364;7.246;2022-12-18T01:51:24;9.40;;;4.80;;
68050;SDS011;54839;51.364;7.246;2022-12-18T01:53:52;5.90;;;5.07;;
68050;SDS011;54839;51.364;7.246;2022-12-18T01:56:18;7.00;;;4.70;;
68050;SDS011;54839;51.364;7.246;2022-12-18T01:58:52;5.47;;;4.90;;
68050;SDS011;54839;51.364;7.246;2022-12-18T02:01:28;6.00;;;3.93;;
68050;SDS011;54839;51.364;7.246;2022-12-18T02:03:55;10.40;;;4.67;;
68050;SDS011;54839;51.364;7.246;2022-12-18T02:09:10;7.10;;;4.47;;
68050;SDS011;54839;51.364;7.246;2022-12-18T02:11:56;7.20;;;5.20;;
68050;SDS011;54839;51.364;7.246;2022-12-18T02:14:34;6.70;;;4.47;;
68050;SDS011;54839;51.364;7.246;2022-12-18T02:17:31;6.33;;;4.60;;
68050;SDS011;54839;51.364;7.246;2022-12-18T02:20:23;7.53;;;5.23;;
68050;SDS011;54839;51.364;7.246;2022-12-18T02:28:19;7.40;;;5.10;;
68050;SDS011;54839;51.364;7.246;2022-12-18T02:30:48;5.67;;;5.03;;
68050;SDS011;54839;51.364;7.246;2022-12-18T02:33:16;4.50;;;3.90;;
68050;SDS011;54839;51.364;7.246;2022-12-18T02:35:46;7.00;;;5.03;;
68050;SDS011;54839;51.364;7.246;2022-12-18T02:38:13;6.20;;;3.80;;
68050;SDS011;54839;51.364;7.246;2022-12-18T02:40:40;6.43;;;4.20;;
68050;SDS011;54839;51.364;7.246;2022-12-18T02:43:12;7.07;;;4.53;;
68050;SDS011;54839;51.364;7.246;2022-12-18T02:45:50;7.30;;;4.47;;
68050;SDS011;54839;51.364;7.246;2022-12-18T02:48:20;8.40;;;4.20;;
68050;SDS011;54839;51.364;7.246;2022-12-18T02:53:50;8.40;;;5.10;;
68050;SDS011;54839;51.364;7.246;2022-12-18T02:56:26;5.10;;;4.10;;
68050;SDS011;54839;51.364;7.246;2022-12-18T03:01:43;5.90;;;4.63;;
68050;SDS011;54839;51.364;7.246;2022-12-18T03:04:19;5.10;;;4.23;;
68050;SDS011;54839;51.364;7.246;2022-12-18T03:06:55;9.47;;;4.60;;
68050;SDS011;54839;51.364;7.246;2022-12-18T03:09:28;8.77;;;5.17;;
68050;SDS011;54839;51.364;7.246;2022-12-18T03:12:12;5.97;;;4.53;;
68050;SDS011;54839;51.364;7.246;2022-12-18T03:17:23;5.80;;;4.07;;
68050;SDS011;54839;51.364;7.246;2022-12-18T03:19:52;6.63;;;4.63;;
68050;SDS011;54839;51.364;7.246;2022-12-18T03:22:22;6.53;;;4.13;;
68050;SDS011;54839;51.364;7.246;2022-12-18T03:24:52;6.70;;;4.40;;
68050;SDS011;54839;51.364;7.246;2022-12-18T03:27:21;7.03;;;5.00;;
68050;SDS011;54839;51.364;7.246;2022-12-18T03:29:51;8.73;;;4.80;;
68050;SDS011;54839;51.364;7.246;2022-12-18T03:32:32;5.13;;;4.40;;
68050;SDS011;54839;51.364;7.246;2022-12-18T03:35:09;7.53;;;4.30;;
68050;SDS011;54839;51.364;7.246;2022-12-18T03:37:38;5.07;;;4.57;;
68050;SDS011;54839;51.364;7.246;2022-12-18T03:40:04;6.77;;;4.67;;
68050;SDS011;54839;51.364;7.246;2022-12-18T03:42:41;3.47;;;3.10;;
68050;SDS011;54839;51.364;7.246;2022-12-18T03:45:22;6.10;;;3.97;;
68050;SDS011;54839;51.364;7.246;2022-12-18T03:47:59;5.10;;;3.70;;
68050;SDS011;54839;51.364;7.246;2022-12-18T03:50:34;6.50;;;4.67;;
68050;SDS011;54839;51.364;7.246;2022-12-18T03:53:17;8.20;;;4.50;;
68050;SDS011;54839;51.364;7.246;2022-12-18T03:56:01;6.00;;;3.93;;
68050;SDS011;54839;51.364;7.246;2022-12-18T03:58:29;5.67;;;4.10;;
68050;SDS011;54839;51.364;7.246;2022-12-18T04:00:57;6.20;;;4.03;;
68050;SDS011;54839;51.364;7.246;2022-12-18T04:03:27;4.40;;;3.80;;
68050;SDS011;54839;51.364;7.246;2022-12-18T04:05:54;4.97;;;3.93;;
68050;SDS011;54839;51.364;7.246;2022-12-18T04:08:22;6.03;;;4.07;;
68050;SDS011;54839;51.364;7.246;2022-12-18T04:10:49;3.93;;;3.53;;
68050;SDS011;54839;51.364;7.246;2022-12-18T04:13:21;6.40;;;3.97;;
68050;SDS011;54839;51.364;7.246;2022-12-18T04:15:48;5.97;;;4.37;;
68050;SDS011;54839;51.364;7.246;2022-12-18T04:18:14;5.93;;;3.73;;
68050;SDS011;54839;51.364;7.246;2022-12-18T04:20:39;7.10;;;4.80;;
68050;SDS011;54839;51.364;7.246;2022-12-18T04:23:05;7.53;;;3.63;;
68050;SDS011;54839;51.364;7.246;2022-12-18T04:25:31;6.50;;;4.57;;
68050;SDS011;54839;51.364;7.246;2022-12-18T04:27:56;6.93;;;3.87;;
68050;SDS011;54839;51.364;7.246;2022-12-18T04:30:22;3.97;;;3.57;;
68050;SDS011;54839;51.364;7.246;2022-12-18T04:32:48;5.50;;;4.20;;
68050;SDS011;54839;51.364;7.246;2022-12-18T04:35:13;6.80;;;4.33;;
68050;SDS011;54839;51.364;7.246;2022-12-18T04:37:39;4.97;;;3.67;;
68050;SDS011;54839;51.364;7.246;2022-12-18T04:40:05;5.70;;;3.60;;
68050;SDS011;54839;51.364;7.246;2022-12-18T04:42:31;4.40;;;3.57;;
68050;SDS011;54839;51.364;7.246;2022-12-18T04:44:56;5.50;;;3.90;;
68050;SDS011;54839;51.364;7.246;2022-12-18T04:47:22;5.40;;;3.97;;
68050;SDS011;54839;51.364;7.246;2022-12-18T04:49:48;4.07;;;3.67;;
68050;SDS011;54839;51.364;7.246;2022-12-18T04:52:13;6.30;;;3.40;;
68050;SDS011;54839;51.364;7.246;2022-12-18T04:54:39;4.40;;;3.23;;
68050;SDS011;54839;51.364;7.246;2022-12-18T04:57:05;3.93;;;3.47;;
68050;SDS011;54839;51.364;7.246;2022-12-18T04:59:30;5.60;;;3.67;;
68050;SDS011;54839;51.364;7.246;2022-12-18T05:01:56;5.07;;;4.17;;
68050;SDS011;54839;51.364;7.246;2022-12-18T05:04:22;5.27;;;4.13;;
68050;SDS011;54839;51.364;7.246;2022-12-18T05:06:47;3.90;;;3.50;;
68050;SDS011;54839;51.364;7.246;2022-12-18T05:09:13;5.83;;;3.97;;
68050;SDS011;54839;51.364;7.246;2022-12-18T05:11:38;5.07;;;3.23;;
68050;SDS011;54839;51.364;7.246;2022-12-18T05:14:04;3.70;;;3.13;;
68050;SDS011;54839;51.364;7.246;2022-12-18T05:16:30;4.37;;;3.20;;
68050;SDS011;54839;51.364;7.246;2022-12-18T05:18:55;4.20;;;2.93;;
68050;SDS011;54839;51.364;7.246;2022-12-18T05:21:21;5.60;;;3.87;;
68050;SDS011;54839;51.364;7.246;2022-12-18T05:23:47;4.00;;;3.47;;
68050;SDS011;54839;51.364;7.246;2022-12-18T05:26:14;4.93;;;3.90;;
68050;SDS011;54839;51.364;7.246;2022-12-18T05:28:42;4.97;;;3.37;;
68050;SDS011;54839;51.364;7.246;2022-12-18T05:31:07;3.87;;;3.30;;
68050;SDS011;54839;51.364;7.246;2022-12-18T05:33:34;4.53;;;4.10;;
68050;SDS011;54839;51.364;7.246;2022-12-18T05:36:00;5.00;;;3.50;;
68050;SDS011;54839;51.364;7.246;2022-12-18T05:38:27;4.90;;;3.80;;
68050;SDS011;54839;51.364;7.246;2022-12-18T05:40:54;4.67;;;4.27;;
68050;SDS011;54839;51.364;7.246;2022-12-18T05:43:20;4.13;;;3.60;;
68050;SDS011;54839;51.364;7.246;2022-12-18T05:45:47;3.70;;;3.00;;
68050;SDS011;54839;51.364;7.246;2022-12-18T05:48:13;5.33;;;3.77;;
68050;SDS011;54839;51.364;7.246;2022-12-18T05:50:40;7.63;;;3.67;;
68050;SDS011;54839;51.364;7.246;2022-12-18T05:53:07;4.00;;;3.40;;
68050;SDS011;54839;51.364;7.246;2022-12-18T05:55:33;4.83;;;3.70;;
68050;SDS011;54839;51.364;7.246;2022-12-18T05:58:00;4.87;;;4.37;;
68050;SDS011;54839;51.364;7.246;2022-12-18T06:00:27;4.47;;;3.40;;
68050;SDS011;54839;51.364;7.246;2022-12-18T06:02:53;5.17;;;3.80;;
68050;SDS011;54839;51.364;7.246;2022-12-18T06:05:19;5.93;;;4.63;;
68050;SDS011;54839;51.364;7.246;2022-12-18T06:07:45;5.97;;;4.20;;
68050;SDS011;54839;51.364;7.246;2022-12-18T06:10:10;8.07;;;4.60;;
68050;SDS011;54839;51.364;7.246;2022-12-18T06:12:36;6.90;;;4.93;;
68050;SDS011;54839;51.364;7.246;2022-12-18T06:15:02;6.27;;;4.20;;
68050;SDS011;54839;51.364;7.246;2022-12-18T06:17:31;5.47;;;4.23;;
68050;SDS011;54839;51.364;7.246;2022-12-18T06:19:58;5.87;;;4.40;;
68050;SDS011;54839;51.364;7.246;2022-12-18T06:22:24;9.00;;;4.60;;
68050;SDS011;54839;51.364;7.246;2022-12-18T06:24:50;4.70;;;4.00;;
68050;SDS011;54839;51.364;7.246;2022-12-18T06:27:16;7.93;;;5.10;;
68050;SDS011;54839;51.364;7.246;2022-12-18T06:29:42;9.20;;;4.47;;
68050;SDS011;54839;51.364;7.246;2022-12-18T06:32:07;6.43;;;4.70;;
68050;SDS011;54839;51.364;7.246;2022-12-18T06:34:33;5.30;;;3.97;;
68050;SDS011;54839;51.364;7.246;2022-12-18T06:36:59;7.10;;;4.57;;
68050;SDS011;54839;51.364;7.246;2022-12-18T06:39:27;7.30;;;5.03;;
68050;SDS011;54839;51.364;7.246;2022-12-18T06:41:53;7.57;;;4.50;;
68050;SDS011;54839;51.364;7.246;2022-12-18T06:44:18;5.97;;;4.80;;
68050;SDS011;54839;51.364;7.246;2022-12-18T06:46:44;7.17;;;4.50;;
68050;SDS011;54839;51.364;7.246;2022-12-18T06:49:10;7.40;;;4.63;;
68050;SDS011;54839;51.364;7.246;2022-12-18T06:51:36;6.70;;;4.90;;
68050;SDS011;54839;51.364;7.246;2022-12-18T06:54:02;4.23;;;3.43;;
68050;SDS011;54839;51.364;7.246;2022-12-18T06:56:27;7.97;;;4.73;;
68050;SDS011;54839;51.364;7.246;2022-12-18T06:58:53;7.03;;;4.73;;
68050;SDS011;54839;51.364;7.246;2022-12-18T07:01:20;7.90;;;5.40;;
68050;SDS011;54839;51.364;7.246;2022-12-18T07:03:46;5.60;;;3.90;;
68050;SDS011;54839;51.364;7.246;2022-12-18T07:06:16;7.50;;;5.50;;
68050;SDS011;54839;51.364;7.246;2022-12-18T07:08:46;5.50;;;3.80;;
68050;SDS011;54839;51.364;7.246;2022-12-18T07:11:13;6.43;;;4.97;;
68050;SDS011;54839;51.364;7.246;2022-12-18T07:13:39;7.67;;;4.80;;
68050;SDS011;54839;51.364;7.246;2022-12-18T07:18:31;7.90;;;5.57;;
68050;SDS011;54839;51.364;7.246;2022-12-18T07:20:57;6.17;;;4.10;;
68050;SDS011;54839;51.364;7.246;2022-12-18T07:23:22;5.53;;;4.63;;
68050;SDS011;54839;51.364;7.246;2022-12-18T07:25:48;4.70;;;4.20;;
68050;SDS011;54839;51.364;7.246;2022-12-18T07:28:13;7.37;;;4.83;;
68050;SDS011;54839;51.364;7.246;2022-12-18T07:30:39;6.73;;;4.60;;
68050;SDS011;54839;51.364;7.246;2022-12-18T07:33:05;5.23;;;4.60;;
68050;SDS011;54839;51.364;7.246;2022-12-18T07:35:32;8.30;;;4.10;;
68050;SDS011;54839;51.364;7.246;2022-12-18T07:37:58;8.97;;;4.83;;
68050;SDS011;54839;51.364;7.246;2022-12-18T07:40:25;8.10;;;4.83;;
68050;SDS011;54839;51.364;7.246;2022-12-18T07:42:50;6.20;;;4.67;;
68050;SDS011;54839;51.364;7.246;2022-12-18T07:45:16;9.07;;;4.97;;
68050;SDS011;54839;51.364;7.246;2022-12-18T07:47:41;4.90;;;4.00;;
68050;SDS011;54839;51.364;7.246;2022-12-18T07:50:07;7.37;;;3.70;;
68050;SDS011;54839;51.364;7.246;2022-12-18T07:52:33;4.87;;;3.77;;
68050;SDS011;54839;51.364;7.246;2022-12-18T07:54:59;8.63;;;3.87;;
68050;SDS011;54839;51.364;7.246;2022-12-18T07:57:24;4.93;;;3.60;;
68050;SDS011;54839;51.364;7.246;2022-12-18T07:59:50;3.93;;;3.43;;
68050;SDS011;54839;51.364;7.246;2022-12-18T08:02:16;7.00;;;4.17;;
68050;SDS011;54839;51.364;7.246;2022-12-18T08:04:41;3.27;;;2.70;;
68050;SDS011;54839;51.364;7.246;2022-12-18T08:07:07;4.53;;;3.50;;
68050;SDS011;54839;51.364;7.246;2022-12-18T08:09:32;5.33;;;3.10;;
68050;SDS011;54839;51.364;7.246;2022-12-18T08:11:58;4.33;;;2.93;;
68050;SDS011;54839;51.364;7.246;2022-12-18T08:14:24;3.97;;;2.77;;
68050;SDS011;54839;51.364;7.246;2022-12-18T08:16:50;3.80;;;3.10;;
68050;SDS011;54839;51.364;7.246;2022-12-18T08:19:15;4.47;;;2.70;;
68050;SDS011;54839;51.364;7.246;2022-12-18T08:21:41;3.60;;;2.57;;
68050;SDS011;54839;51.364;7.246;2022-12-18T08:24:06;5.40;;;3.20;;
68050;SDS011;54839;51.364;7.246;2022-12-18T08:26:33;3.93;;;2.80;;
68050;SDS011;54839;51.364;7.246;2022-12-18T08:28:59;5.93;;;3.77;;
68050;SDS011;54839;51.364;7.246;2022-12-18T08:31:26;5.60;;;3.30;;
68050;SDS011;54839;51.364;7.246;2022-12-18T08:33:53;4.50;;;3.50;;
68050;SDS011;54839;51.364;7.246;2022-12-18T08:36:19;6.33;;;3.43;;
68050;SDS011;54839;51.364;7.246;2022-12-18T08:38:46;6.20;;;3.90;;
68050;SDS011;54839;51.364;7.246;2022-12-18T08:41:12;3.53;;;3.00;;
68050;SDS011;54839;51.364;7.246;2022-12-18T08:43:39;4.77;;;3.13;;
68050;SDS011;54839;51.364;7.246;2022-12-18T08:46:24;6.43;;;3.70;;
68050;SDS011;54839;51.364;7.246;2022-12-18T08:48:51;4.73;;;3.80;;
68050;SDS011;54839;51.364;7.246;2022-12-18T08:51:18;3.17;;;2.87;;
68050;SDS011;54839;51.364;7.246;2022-12-18T08:53:44;5.23;;;4.40;;
68050;SDS011;54839;51.364;7.246;2022-12-18T08:56:11;5.77;;;4.27;;
68050;SDS011;54839;51.364;7.246;2022-12-18T08:58:37;4.87;;;3.57;;
68050;SDS011;54839;51.364;7.246;2022-12-18T09:01:04;4.63;;;3.33;;
68050;SDS011;54839;51.364;7.246;2022-12-18T09:03:31;4.57;;;3.33;;
68050;SDS011;54839;51.364;7.246;2022-12-18T09:05:57;2.83;;;2.50;;
68050;SDS011;54839;51.364;7.246;2022-12-18T09:08:23;6.30;;;2.93;;
68050;SDS011;54839;51.364;7.246;2022-12-18T09:10:49;4.13;;;2.50;;
68050;SDS011;54839;51.364;7.246;2022-12-18T09:13:15;3.60;;;3.30;;
68050;SDS011;54839;51.364;7.246;2022-12-18T09:15:42;3.07;;;2.63;;
68050;SDS011;54839;51.364;7.246;2022-12-18T09:18:10;4.80;;;3.47;;
68050;SDS011;54839;51.364;7.246;2022-12-18T09:20:36;5.37;;;3.87;;
68050;SDS011;54839;51.364;7.246;2022-12-18T09:23:02;4.90;;;3.23;;
68050;SDS011;54839;51.364;7.246;2022-12-18T09:25:29;3.47;;;2.67;;
68050;SDS011;54839;51.364;7.246;2022-12-18T09:28:05;3.00;;;2.70;;
68050;SDS011;54839;51.364;7.246;2022-12-18T09:30:37;2.53;;;2.33;;
68050;SDS011;54839;51.364;7.246;2022-12-18T09:33:03;4.83;;;2.97;;
68050;SDS011;54839;51.364;7.246;2022-12-18T09:35:29;4.43;;;3.37;;
68050;SDS011;54839;51.364;7.246;2022-12-18T09:37:55;3.37;;;3.07;;
68050;SDS011;54839;51.364;7.246;2022-12-18T09:40:21;3.00;;;2.30;;
68050;SDS011;54839;51.364;7.246;2022-12-18T09:42:54;3.37;;;2.77;;
68050;SDS011;54839;51.364;7.246;2022-12-18T09:45:23;3.47;;;3.13;;
68050;SDS011;54839;51.364;7.246;2022-12-18T09:47:49;5.27;;;3.30;;
68050;SDS011;54839;51.364;7.246;2022-12-18T09:50:26;3.03;;;2.80;;
68050;SDS011;54839;51.364;7.246;2022-12-18T09:52:59;3.40;;;3.07;;
68050;SDS011;54839;51.364;7.246;2022-12-18T09:55:31;5.20;;;3.57;;
68050;SDS011;54839;51.364;7.246;2022-12-18T09:58:02;3.37;;;2.67;;
68050;SDS011;54839;51.364;7.246;2022-12-18T10:00:36;3.80;;;3.10;;
68050;SDS011;54839;51.364;7.246;2022-12-18T10:03:03;4.70;;;3.10;;
68050;SDS011;54839;51.364;7.246;2022-12-18T10:05:43;4.07;;;3.23;;
68050;SDS011;54839;51.364;7.246;2022-12-18T10:11:05;6.47;;;4.00;;
68050;SDS011;54839;51.364;7.246;2022-12-18T10:13:49;4.60;;;3.23;;
68050;SDS011;54839;51.364;7.246;2022-12-18T10:16:30;11.70;;;3.80;;
68050;SDS011;54839;51.364;7.246;2022-12-18T10:24:54;5.93;;;2.73;;
68050;SDS011;54839;51.364;7.246;2022-12-18T10:27:29;5.30;;;3.17;;
68050;SDS011;54839;51.364;7.246;2022-12-18T10:29:55;7.00;;;3.53;;
68050;SDS011;54839;51.364;7.246;2022-12-18T10:32:22;4.10;;;2.83;;
68050;SDS011;54839;51.364;7.246;2022-12-18T10:34:54;5.37;;;3.33;;
68050;SDS011;54839;51.364;7.246;2022-12-18T10:37:24;3.00;;;2.80;;
68050;SDS011;54839;51.364;7.246;2022-12-18T10:42:37;3.43;;;3.13;;
68050;SDS011;54839;51.364;7.246;2022-12-18T10:45:06;4.40;;;3.10;;
68050;SDS011;54839;51.364;7.246;2022-12-18T10:47:42;5.97;;;3.47;;
68050;SDS011;54839;51.364;7.246;2022-12-18T10:50:18;4.30;;;3.67;;
68050;SDS011;54839;51.364;7.246;2022-12-18T10:52:56;14.53;;;3.63;;
68050;SDS011;54839;51.364;7.246;2022-12-18T10:55:47;7.10;;;3.80;;
68050;SDS011;54839;51.364;7.246;2022-12-18T10:58:23;5.23;;;3.07;;
68050;SDS011;54839;51.364;7.246;2022-12-18T11:06:06;8.80;;;4.27;;
68050;SDS011;54839;51.364;7.246;2022-12-18T11:08:40;8.53;;;3.80;;
68050;SDS011;54839;51.364;7.246;2022-12-18T11:11:14;9.53;;;3.57;;
68050;SDS011;54839;51.364;7.246;2022-12-18T11:13:49;5.00;;;3.13;;
68050;SDS011;54839;51.364;7.246;2022-12-18T11:16:19;4.20;;;3.40;;
68050;SDS011;54839;51.364;7.246;2022-12-18T11:18:45;14.10;;;4.00;;
68050;SDS011;54839;51.364;7.246;2022-12-18T11:21:11;20.63;;;4.53;;
68050;SDS011;54839;51.364;7.246;2022-12-18T11:23:45;10.03;;;3.80;;
68050;SDS011;54839;51.364;7.246;2022-12-18T11:26:14;13.50;;;3.70;;
68050;SDS011;54839;51.364;7.246;2022-12-18T11:33:34;13.23;;;5.87;;
68050;SDS011;54839;51.364;7.246;2022-12-18T11:36:02;10.73;;;4.03;;
68050;SDS011;54839;51.364;7.246;2022-12-18T11:38:31;11.53;;;4.23;;
68050;SDS011;54839;51.364;7.246;2022-12-18T11:43:38;13.40;;;4.40;;
68050;SDS011;54839;51.364;7.246;2022-12-18T11:46:12;12.13;;;3.80;;
68050;SDS011;54839;51.364;7.246;2022-12-18T11:48:44;19.23;;;5.33;;
68050;SDS011;54839;51.364;7.246;2022-12-18T11:51:29;54.07;;;9.00;;
68050;SDS011;54839;51.364;7.246;2022-12-18T11:54:11;15.03;;;4.90;;
68050;SDS011;54839;51.364;7.246;2022-12-18T11:56:49;9.80;;;4.10;;
68050;SDS011;54839;51.364;7.246;2022-12-18T11:59:27;7.17;;;4.60;;
68050;SDS011;54839;51.364;7.246;2022-12-18T12:04:56;9.43;;;4.80;;
68050;SDS011;54839;51.364;7.246;2022-12-18T12:18:41;20.13;;;5.67;;
68050;SDS011;54839;51.364;7.246;2022-12-18T12:21:39;27.63;;;6.27;;
68050;SDS011;54839;51.364;7.246;2022-12-18T12:29:37;17.93;;;5.97;;
68050;SDS011;54839;51.364;7.246;2022-12-18T12:40:44;14.30;;;6.13;;
68050;SDS011;54839;51.364;7.246;2022-12-18T12:43:51;14.63;;;6.33;;
68050;SDS011;54839;51.364;7.246;2022-12-18T12:46:20;17.03;;;6.63;;
68050;SDS011;54839;51.364;7.246;2022-12-18T12:48:56;12.33;;;5.27;;
68050;SDS011;54839;51.364;7.246;2022-12-18T12:51:32;19.50;;;6.70;;
68050;SDS011;54839;51.364;7.246;2022-12-18T12:54:01;15.53;;;5.77;;
68050;SDS011;54839;51.364;7.246;2022-12-18T12:56:44;22.10;;;7.00;;
68050;SDS011;54839;51.364;7.246;2022-12-18T13:07:49;9.97;;;5.87;;
68050;SDS011;54839;51.364;7.246;2022-12-18T13:12:54;13.10;;;6.97;;
68050;SDS011;54839;51.364;7.246;2022-12-18T13:15:30;17.37;;;7.50;;
68050;SDS011;54839;51.364;7.246;2022-12-18T13:18:17;15.43;;;7.03;;
68050;SDS011;54839;51.364;7.246;2022-12-18T13:25:52;28.40;;;8.97;;
68050;SDS011;54839;51.364;7.246;2022-12-18T13:31:08;14.50;;;7.70;;
68050;SDS011;54839;51.364;7.246;2022-12-18T13:36:15;16.77;;;8.10;;
68050;SDS011;54839;51.364;7.246;2022-12-18T13:41:47;20.93;;;8.63;;
68050;SDS011;54839;51.364;7.246;2022-12-18T13:44:59;23.63;;;8.57;;
68050;SDS011;54839;51.364;7.246;2022-12-18T13:47:26;19.27;;;8.97;;
68050;SDS011;54839;51.364;7.246;2022-12-18T13:49:57;13.83;;;8.90;;
68050;SDS011;54839;51.364;7.246;2022-12-18T13:52:27;23.57;;;9.00;;
68050;SDS011;54839;51.364;7.246;2022-12-18T13:54:58;11.77;;;8.23;;
68050;SDS011;54839;51.364;7.246;2022-12-18T13:57:27;28.90;;;10.50;;
68050;SDS011;54839;51.364;7.246;2022-12-18T14:00:43;27.20;;;9.80;;
68050;SDS011;54839;51.364;7.246;2022-12-18T14:02:53;41.37;;;12.13;;
68050;SDS011;54839;51.364;7.246;2022-12-18T14:05:25;20.80;;;9.50;;
68050;SDS011;54839;51.364;7.246;2022-12-18T14:07:53;18.30;;;9.23;;
68050;SDS011;54839;51.364;7.246;2022-12-18T14:10:24;16.10;;;10.00;;
68050;SDS011;54839;51.364;7.246;2022-12-18T14:12:50;68.10;;;13.23;;
68050;SDS011;54839;51.364;7.246;2022-12-18T14:17:54;16.73;;;8.97;;
68050;SDS011;54839;51.364;7.246;2022-12-18T14:20:25;20.43;;;9.77;;
68050;SDS011;54839;51.364;7.246;2022-12-18T14:22:53;15.30;;;9.83;;
68050;SDS011;54839;51.364;7.246;2022-12-18T14:25:22;26.10;;;9.23;;
68050;SDS011;54839;51.364;7.246;2022-12-18T14:28:02;12.70;;;7.47;;
68050;SDS011;54839;51.364;7.246;2022-12-18T14:30:32;22.00;;;10.13;;
68050;SDS011;54839;51.364;7.246;2022-12-18T14:33:04;20.83;;;9.97;;
68050;SDS011;54839;51.364;7.246;2022-12-18T14:35:30;32.27;;;11.67;;
68050;SDS011;54839;51.364;7.246;2022-12-18T14:40:44;23.20;;;10.20;;
68050;SDS011;54839;51.364;7.246;2022-12-18T14:43:10;19.20;;;10.73;;
68050;SDS011;54839;51.364;7.246;2022-12-18T14:45:38;24.93;;;12.17;;
68050;SDS011;54839;51.364;7.246;2022-12-18T14:48:06;19.00;;;10.03;;
68050;SDS011;54839;51.364;7.246;2022-12-18T14:50:34;21.27;;;9.30;;
68050;SDS011;54839;51.364;7.246;2022-12-18T14:53:00;19.37;;;10.43;;
68050;SDS011;54839;51.364;7.246;2022-12-18T14:55:25;23.37;;;11.30;;
68050;SDS011;54839;51.364;7.246;2022-12-18T14:57:52;19.97;;;12.03;;
68050;SDS011;54839;51.364;7.246;2022-12-18T15:00:22;32.90;;;11.10;;
68050;SDS011;54839;51.364;7.246;2022-12-18T15:02:50;15.03;;;9.77;;
68050;SDS011;54839;51.364;7.246;2022-12-18T15:05:21;20.10;;;9.43;;
68050;SDS011;54839;51.364;7.246;2022-12-18T15:07:54;12.93;;;9.20;;
68050;SDS011;54839;51.364;7.246;2022-12-18T15:18:05;18.70;;;10.27;;
68050;SDS011;54839;51.364;7.246;2022-12-18T15:23:04;13.50;;;10.33;;
68050;SDS011;54839;51.364;7.246;2022-12-18T15:25:36;25.70;;;10.90;;
68050;SDS011;54839;51.364;7.246;2022-12-18T15:28:03;27.93;;;12.00;;
68050;SDS011;54839;51.364;7.246;2022-12-18T15:30:40;17.50;;;12.50;;
68050;SDS011;54839;51.364;7.246;2022-12-18T15:33:25;16.63;;;11.60;;
68050;SDS011;54839;51.364;7.246;2022-12-18T15:36:01;19.60;;;11.90;;
68050;SDS011;54839;51.364;7.246;2022-12-18T15:38:29;30.83;;;13.07;;
68050;SDS011;54839;51.364;7.246;2022-12-18T15:40:55;21.00;;;12.10;;
68050;SDS011;54839;51.364;7.246;2022-12-18T15:43:22;15.73;;;12.23;;
68050;SDS011;54839;51.364;7.246;2022-12-18T15:46:05;22.30;;;13.83;;
68050;SDS011;54839;51.364;7.246;2022-12-18T15:48:35;21.37;;;12.20;;
68050;SDS011;54839;51.364;7.246;2022-12-18T15:51:50;22.00;;;11.27;;
68050;SDS011;54839;51.364;7.246;2022-12-18T15:54:00;20.23;;;13.17;;
68050;SDS011;54839;51.364;7.246;2022-12-18T15:56:29;19.23;;;13.10;;
68050;SDS011;54839;51.364;7.246;2022-12-18T15:59:15;23.77;;;14.30;;
68050;SDS011;54839;51.364;7.246;2022-12-18T16:01:43;24.80;;;14.47;;
68050;SDS011;54839;51.364;7.246;2022-12-18T16:04:11;21.23;;;12.80;;
68050;SDS011;54839;51.364;7.246;2022-12-18T16:06:39;23.70;;;13.00;;
68050;SDS011;54839;51.364;7.246;2022-12-18T16:09:06;28.40;;;14.73;;
68050;SDS011;54839;51.364;7.246;2022-12-18T16:11:32;21.63;;;14.30;;
68050;SDS011;54839;51.364;7.246;2022-12-18T16:14:12;14.20;;;10.67;;
68050;SDS011;54839;51.364;7.246;2022-12-18T16:16:47;23.53;;;13.93;;
68050;SDS011;54839;51.364;7.246;2022-12-18T16:19:14;21.07;;;14.70;;
68050;SDS011;54839;51.364;7.246;2022-12-18T16:21:41;24.00;;;14.43;;
68050;SDS011;54839;51.364;7.246;2022-12-18T16:24:16;25.27;;;13.37;;
68050;SDS011;54839;51.364;7.246;2022-12-18T16:26:43;27.00;;;14.90;;
68050;SDS011;54839;51.364;7.246;2022-12-18T16:29:09;20.53;;;14.90;;
68050;SDS011;54839;51.364;7.246;2022-12-18T16:31:36;22.33;;;14.53;;
68050;SDS011;54839;51.364;7.246;2022-12-18T16:34:12;36.87;;;26.03;;
68050;SDS011;54839;51.364;7.246;2022-12-18T16:36:59;25.93;;;14.97;;
68050;SDS011;54839;51.364;7.246;2022-12-18T16:39:29;18.83;;;12.50;;
68050;SDS011;54839;51.364;7.246;2022-12-18T16:41:56;29.80;;;16.90;;
68050;SDS011;54839;51.364;7.246;2022-12-18T16:44:22;26.73;;;15.40;;
68050;SDS011;54839;51.364;7.246;2022-12-18T16:46:47;26.87;;;17.83;;
68050;SDS011;54839;51.364;7.246;2022-12-18T16:49:14;21.53;;;14.87;;
68050;SDS011;54839;51.364;7.246;2022-12-18T16:51:41;28.37;;;15.20;;
68050;SDS011;54839;51.364;7.246;2022-12-18T16:54:07;21.60;;;14.20;;